Time;durP1;ratioP1;P1;durP2;ratioP2;P2;SDS_P1;SDS_P2;PMS_P1;PMS_P2;Temp;Humidity;BMP_temperature;BMP_pressure;BME280_temperature;BME280_humidity;BME280_pressure;Samples;Min_cycle;Max_cycle;Signal;HPM_P1;HPM_P2
2022/07/29 00:00:51;;;;;;;3.07;1.57;;;23.10;46.50;;;;;;4994497;28;20828;-70
2022/07/29 00:03:18;;;;;;;1.53;1.00;;;23.10;46.50;;;;;;4994407;28;20451;-70
2022/07/29 00:05:46;;;;;;;2.00;1.30;;;23.10;46.30;;;;;;4994140;28;20813;-70
2022/07/29 00:08:13;;;;;;;2.80;1.40;;;23.00;46.30;;;;;;4994405;28;20448;-70
2022/07/29 00:10:39;;;;;;;4.03;1.40;;;23.00;46.40;;;;;;4994005;28;20854;-70
2022/07/29 00:13:06;;;;;;;4.43;1.47;;;23.00;46.60;;;;;;4993963;28;20495;-71
2022/07/29 00:15:33;;;;;;;2.23;1.00;;;23.00;46.80;;;;;;4994354;28;20455;-71
2022/07/29 00:18:00;;;;;;;7.03;1.47;;;23.00;46.90;;;;;;4994332;28;20448;-71
2022/07/29 00:20:27;;;;;;;1.93;1.23;;;23.00;47.00;;;;;;4994558;28;20494;-70
2022/07/29 00:22:55;;;;;;;1.57;1.20;;;23.00;47.00;;;;;;4994303;28;20452;-71
2022/07/29 00:25:22;;;;;;;2.67;1.20;;;22.90;47.00;;;;;;4994227;28;20445;-71
2022/07/29 00:27:49;;;;;;;5.40;1.83;;;22.90;47.10;;;;;;4994221;28;20459;-71
2022/07/29 00:30:16;;;;;;;1.57;1.30;;;22.90;47.20;;;;;;4994077;28;20483;-70
2022/07/29 00:32:42;;;;;;;5.13;1.63;;;22.80;47.20;;;;;;4993741;28;20933;-70
2022/07/29 00:37:55;;;;;;;7.10;1.73;;;22.80;47.20;;;;;;4994229;28;20412;-70
2022/07/29 00:40:22;;;;;;;3.20;1.37;;;22.80;47.20;;;;;;4993713;28;20468;-71
2022/07/29 00:42:51;;;;;;;2.10;1.27;;;22.80;47.50;;;;;;4993967;28;20451;-70
2022/07/29 00:45:19;;;;;;;2.70;1.30;;;22.70;47.80;;;;;;4994040;28;20444;-71
2022/07/29 00:47:46;;;;;;;8.00;2.27;;;22.80;48.00;;;;;;4994356;28;20790;-71
2022/07/29 00:50:13;;;;;;;2.40;1.40;;;22.70;47.80;;;;;;4993593;28;21015;-70
2022/07/29 00:52:41;;;;;;;2.10;1.30;;;22.70;47.70;;;;;;4993622;28;20480;-70
2022/07/29 00:55:12;;;;;;;3.50;1.50;;;22.60;47.70;;;;;;4995438;28;20950;-71
2022/07/29 00:57:39;;;;;;;8.23;1.60;;;22.60;48.20;;;;;;4997834;28;20439;-70
2022/07/29 01:00:09;;;;;;;2.57;1.50;;;22.60;48.00;;;;;;4997490;28;20978;-70
2022/07/29 01:02:36;;;;;;;4.00;1.63;;;22.60;48.10;;;;;;4997744;28;20444;-71
2022/07/29 01:05:03;;;;;;;2.10;1.43;;;22.50;48.10;;;;;;4997412;28;20817;-70
2022/07/29 01:07:32;;;;;;;4.87;1.60;;;22.50;48.40;;;;;;4997495;28;20959;-71
2022/07/29 01:10:00;;;;;;;2.27;1.43;;;22.50;48.50;;;;;;4997658;28;20464;-71
2022/07/29 01:12:31;;;;;;;3.10;1.37;;;22.40;48.50;;;;;;4997254;28;20484;-71
2022/07/29 01:14:59;;;;;;;3.97;1.60;;;22.40;48.70;;;;;;4997325;28;20432;-71
2022/07/29 01:17:32;;;;;;;9.50;1.87;;;22.40;48.70;;;;;;4997535;28;20448;-71
2022/07/29 01:20:04;;;;;;;3.37;1.60;;;22.30;48.80;;;;;;4997459;28;20520;-71
2022/07/29 01:22:43;;;;;;;4.03;1.43;;;22.30;49.00;;;;;;4997582;28;20459;-71
2022/07/29 01:25:30;;;;;;;2.70;1.50;;;22.30;49.10;;;;;;4997468;28;20447;-71
2022/07/29 01:28:15;;;;;;;2.63;1.43;;;22.20;49.00;;;;;;4997182;28;20428;-71
2022/07/29 01:30:47;;;;;;;1.50;1.30;;;22.20;49.10;;;;;;4997373;28;20479;-71
2022/07/29 01:36:01;;;;;;;2.73;1.50;;;22.20;49.40;;;;;;4997445;28;20467;-71
2022/07/29 01:38:29;;;;;;;2.97;1.43;;;22.10;49.40;;;;;;4996752;28;20946;-70
2022/07/29 01:41:06;;;;;;;5.33;1.70;;;22.10;49.50;;;;;;4996794;28;20902;-70
2022/07/29 01:43:39;;;;;;;2.90;1.30;;;22.10;49.70;;;;;;4996884;28;20906;-71
2022/07/29 01:46:13;;;;;;;1.70;1.27;;;22.00;50.40;;;;;;4996732;28;20914;-70
2022/07/29 01:48:43;;;;;;;4.27;1.97;;;22.00;49.90;;;;;;4996854;28;20433;-70
2022/07/29 01:51:21;;;;;;;4.27;1.50;;;22.00;50.20;;;;;;4997033;28;20439;-70
2022/07/29 01:53:56;;;;;;;3.27;1.90;;;21.90;50.60;;;;;;4996591;28;20464;-67
2022/07/29 01:56:25;;;;;;;5.50;2.07;;;21.80;50.90;;;;;;4996599;28;20914;-67
2022/07/29 01:58:54;;;;;;;5.10;1.50;;;21.50;50.70;;;;;;4996606;28;20475;-67
2022/07/29 02:01:24;;;;;;;2.67;1.37;;;21.20;51.50;;;;;;4996429;28;20453;-67
2022/07/29 02:03:53;;;;;;;2.70;1.50;;;21.20;51.90;;;;;;4996481;28;20428;-67
2022/07/29 02:06:23;;;;;;;3.13;1.30;;;21.10;51.60;;;;;;4995100;28;20823;-67
2022/07/29 02:08:53;;;;;;;6.23;1.50;;;21.00;51.50;;;;;;4996551;28;20472;-67
2022/07/29 02:11:20;;;;;;;5.23;1.83;;;21.00;51.50;;;;;;4996253;28;20810;-67
2022/07/29 02:13:48;;;;;;;3.40;1.50;;;21.00;51.50;;;;;;4996558;28;20479;-67
2022/07/29 02:16:17;;;;;;;3.33;1.57;;;21.00;51.10;;;;;;4996531;28;20861;-67
2022/07/29 02:18:50;;;;;;;3.20;1.73;;;21.00;50.80;;;;;;4996363;28;20473;-67
2022/07/29 02:21:23;;;;;;;9.10;1.77;;;21.00;50.90;;;;;;4996493;28;20436;-67
2022/07/29 02:23:52;;;;;;;1.97;1.57;;;21.00;51.10;;;;;;4996383;28;20441;-67
2022/07/29 02:26:22;;;;;;;3.53;1.80;;;21.00;51.20;;;;;;4996277;28;20456;-67
2022/07/29 02:28:50;;;;;;;2.63;1.50;;;21.10;51.40;;;;;;4996106;28;20845;-67
2022/07/29 02:31:20;;;;;;;2.63;1.70;;;21.10;51.20;;;;;;4995836;28;20452;-68
2022/07/29 02:33:49;;;;;;;7.50;2.03;;;21.20;51.00;;;;;;4995844;28;20824;-67
2022/07/29 02:36:17;;;;;;;5.67;2.10;;;21.10;50.80;;;;;;4996095;28;20456;-67
2022/07/29 02:38:57;;;;;;;5.07;1.60;;;21.10;50.80;;;;;;4996006;28;20468;-67
2022/07/29 02:41:28;;;;;;;5.30;2.10;;;21.10;51.10;;;;;;4995950;28;20444;-67
2022/07/29 02:43:57;;;;;;;6.73;1.90;;;21.20;51.50;;;;;;4996046;28;20432;-67
2022/07/29 02:46:31;;;;;;;3.60;1.87;;;21.10;51.50;;;;;;4995911;28;20490;-67
2022/07/29 02:49:07;;;;;;;1.87;1.37;;;21.10;51.30;;;;;;4995860;28;20475;-67
2022/07/29 02:51:41;;;;;;;3.67;1.53;;;21.10;51.10;;;;;;4995878;28;20490;-67
2022/07/29 02:54:10;;;;;;;4.70;1.90;;;21.00;51.10;;;;;;4995668;28;20471;-67
2022/07/29 02:56:39;;;;;;;5.23;1.50;;;20.90;51.30;;;;;;4995474;28;20452;-68
2022/07/29 02:59:10;;;;;;;3.10;1.30;;;20.90;51.40;;;;;;4995741;28;20476;-67
2022/07/29 03:01:42;;;;;;;6.70;1.50;;;20.80;51.70;;;;;;4995648;28;20437;-67
2022/07/29 03:04:12;;;;;;;5.63;1.50;;;20.80;52.40;;;;;;4995383;28;20425;-68
2022/07/29 03:06:41;;;;;;;3.93;1.47;;;20.90;53.70;;;;;;4995627;28;20432;-67
2022/07/29 03:09:09;;;;;;;4.90;1.80;;;20.90;54.00;;;;;;4995185;28;20820;-67
2022/07/29 03:11:36;;;;;;;7.70;1.40;;;21.00;54.40;;;;;;4995246;28;20464;-67
2022/07/29 03:14:05;;;;;;;2.33;1.70;;;21.00;54.50;;;;;;4995326;28;20469;-67
2022/07/29 03:16:32;;;;;;;5.33;1.77;;;21.00;55.30;;;;;;4995371;28;20444;-67
2022/07/29 03:19:01;;;;;;;7.43;2.27;;;21.10;56.20;;;;;;4994852;28;21045;-67
2022/07/29 03:21:30;;;;;;;9.17;1.93;;;21.00;55.90;;;;;;4994701;28;20968;-67
2022/07/29 03:23:57;;;;;;;7.73;2.10;;;20.90;56.70;;;;;;4995183;28;20441;-67
2022/07/29 03:26:23;;;;;;;5.70;1.83;;;20.70;57.40;;;;;;4995175;28;20452;-67
2022/07/29 03:28:50;;;;;;;4.40;1.90;;;20.60;57.80;;;;;;4994948;28;20472;-67
2022/07/29 03:31:17;;;;;;;9.40;2.33;;;20.60;58.70;;;;;;4995015;28;20493;-67
2022/07/29 03:33:44;;;;;;;4.97;2.00;;;20.60;58.50;;;;;;4994936;28;20491;-67
2022/07/29 03:36:10;;;;;;;4.10;2.33;;;20.60;58.90;;;;;;4994662;28;20468;-67
2022/07/29 03:38:40;;;;;;;4.63;2.30;;;20.60;59.10;;;;;;4994924;28;20448;-68
2022/07/29 03:41:11;;;;;;;6.43;2.50;;;20.60;59.60;;;;;;4994793;28;20818;-68
2022/07/29 03:43:41;;;;;;;4.67;2.10;;;20.60;60.10;;;;;;4994887;28;20436;-67
2022/07/29 03:46:09;;;;;;;2.70;2.00;;;20.50;60.50;;;;;;4994855;28;20444;-67
2022/07/29 03:48:40;;;;;;;3.87;2.23;;;20.40;60.40;;;;;;4994676;28;20452;-68
2022/07/29 03:51:07;;;;;;;3.80;2.67;;;20.20;60.50;;;;;;4994783;28;20446;-67
2022/07/29 03:53:35;;;;;;;2.23;1.70;;;20.20;60.80;;;;;;4994623;28;20492;-67
2022/07/29 03:56:04;;;;;;;5.40;1.90;;;20.30;61.10;;;;;;4994701;28;20495;-67
2022/07/29 03:58:32;;;;;;;5.17;2.43;;;20.30;61.00;;;;;;4994521;28;20484;-68
2022/07/29 04:01:00;;;;;;;3.07;2.30;;;20.30;61.50;;;;;;4994628;28;20476;-67
2022/07/29 04:03:27;;;;;;;5.83;1.77;;;20.40;61.60;;;;;;4994550;28;20480;-67
2022/07/29 04:06:05;;;;;;;5.80;1.83;;;20.40;62.00;;;;;;4994526;28;20448;-67
2022/07/29 04:08:32;;;;;;;3.70;1.80;;;20.50;62.30;;;;;;4994032;28;20912;-67
2022/07/29 04:10:59;;;;;;;8.73;2.10;;;20.50;62.30;;;;;;4994453;28;20492;-68
2022/07/29 04:13:28;;;;;;;4.73;1.60;;;20.50;62.40;;;;;;4994339;28;20491;-68
2022/07/29 04:15:55;;;;;;;4.33;2.00;;;20.50;62.60;;;;;;4994053;28;20930;-67
2022/07/29 04:18:22;;;;;;;3.10;1.53;;;20.50;62.60;;;;;;4994027;28;20963;-67
2022/07/29 04:20:48;;;;;;;3.53;1.97;;;20.50;62.30;;;;;;4994276;28;20809;-68
2022/07/29 04:23:15;;;;;;;2.20;1.73;;;20.50;62.30;;;;;;4994259;28;20475;-67
2022/07/29 04:25:42;;;;;;;3.30;1.87;;;20.50;62.20;;;;;;4994261;28;20454;-67
2022/07/29 04:28:10;;;;;;;2.83;1.60;;;20.50;61.90;;;;;;4994126;28;20531;-67
2022/07/29 04:30:39;;;;;;;1.40;1.30;;;20.50;61.90;;;;;;4993131;28;20476;-67
2022/07/29 04:33:07;;;;;;;3.20;1.90;;;20.60;61.50;;;;;;4993751;28;20776;-67
2022/07/29 04:35:37;;;;;;;4.50;2.20;;;20.60;61.60;;;;;;4994171;28;20872;-67
2022/07/29 04:38:05;;;;;;;4.10;2.27;;;20.60;62.30;;;;;;4994173;28;20452;-67
2022/07/29 04:40:32;;;;;;;7.20;1.90;;;20.60;62.00;;;;;;4993673;28;20460;-67
2022/07/29 04:43:00;;;;;;;2.60;2.10;;;20.60;62.70;;;;;;4994137;28;20494;-67
2022/07/29 04:45:27;;;;;;;6.00;2.97;;;20.60;63.20;;;;;;4993907;28;20798;-67
2022/07/29 04:47:55;;;;;;;3.73;1.80;;;20.50;63.70;;;;;;4994109;28;20448;-67
2022/07/29 04:50:22;;;;;;;4.33;2.03;;;20.50;64.60;;;;;;4993680;28;20472;-67
2022/07/29 04:52:49;;;;;;;5.97;1.80;;;20.60;65.40;;;;;;4994177;28;20494;-67
2022/07/29 04:55:15;;;;;;;7.43;2.77;;;20.60;65.60;;;;;;4994111;28;20852;-67
2022/07/29 04:57:42;;;;;;;3.90;2.80;;;20.60;65.60;;;;;;4993858;28;20448;-67
2022/07/29 05:00:10;;;;;;;3.17;2.00;;;20.50;65.30;;;;;;4993833;28;20480;-67
2022/07/29 05:02:37;;;;;;;2.20;1.80;;;20.60;65.10;;;;;;4993819;28;20463;-67
2022/07/29 05:05:06;;;;;;;1.90;1.70;;;20.60;65.00;;;;;;4993592;28;20950;-67
2022/07/29 05:07:32;;;;;;;3.30;1.60;;;20.60;64.70;;;;;;4993866;28;20452;-67
2022/07/29 05:09:59;;;;;;;4.40;2.10;;;20.60;63.80;;;;;;4993661;28;20464;-68
2022/07/29 05:12:26;;;;;;;4.40;1.90;;;20.60;63.50;;;;;;4993551;28;20463;-68
2022/07/29 05:14:54;;;;;;;3.20;1.70;;;20.60;63.80;;;;;;4993708;28;20494;-67
2022/07/29 05:17:21;;;;;;;5.40;1.87;;;20.70;63.50;;;;;;4993675;28;20448;-68
2022/07/29 05:19:50;;;;;;;3.57;1.87;;;20.70;63.50;;;;;;4993621;28;20468;-68
2022/07/29 05:22:18;;;;;;;2.50;2.00;;;20.80;63.30;;;;;;4993750;28;20452;-67
2022/07/29 05:24:45;;;;;;;4.13;2.27;;;20.80;64.10;;;;;;4993386;28;20954;-67
2022/07/29 05:27:12;;;;;;;1.60;1.50;;;20.80;63.70;;;;;;4993658;28;20455;-67
2022/07/29 05:29:39;;;;;;;3.07;2.10;;;20.90;64.20;;;;;;4993610;28;20830;-68
2022/07/29 05:32:06;;;;;;;3.10;2.00;;;20.90;64.20;;;;;;4993562;28;20452;-68
2022/07/29 05:34:32;;;;;;;2.70;1.90;;;21.00;63.90;;;;;;4993260;28;20480;-68
2022/07/29 05:36:59;;;;;;;5.80;2.30;;;21.00;63.80;;;;;;4993275;28;20456;-68
2022/07/29 05:39:27;;;;;;;2.80;2.40;;;21.00;63.40;;;;;;4993472;28;20464;-68
2022/07/29 05:41:54;;;;;;;5.53;2.20;;;21.10;64.10;;;;;;4996302;28;20447;-68
2022/07/29 05:44:21;;;;;;;6.13;2.93;;;21.10;64.10;;;;;;4997550;28;20452;-68
2022/07/29 05:46:48;;;;;;;6.80;3.03;;;21.10;63.00;;;;;;4997064;28;20440;-68
2022/07/29 05:49:14;;;;;;;3.13;2.30;;;21.10;62.80;;;;;;4996972;28;20475;-68
2022/07/29 05:51:41;;;;;;;3.93;3.13;;;21.20;62.40;;;;;;4996978;28;20455;-67
2022/07/29 05:54:08;;;;;;;6.80;2.73;;;21.20;62.80;;;;;;4996865;28;20487;-67
2022/07/29 05:56:36;;;;;;;4.00;2.77;;;21.20;62.90;;;;;;4996823;28;20444;-68
2022/07/29 05:59:03;;;;;;;4.37;3.27;;;21.20;62.40;;;;;;4996759;28;20488;-68
2022/07/29 06:01:31;;;;;;;4.00;2.90;;;21.20;62.40;;;;;;4996398;28;20861;-68
2022/07/29 06:03:57;;;;;;;11.73;3.13;;;21.20;62.00;;;;;;4997304;28;20492;-67
2022/07/29 06:06:24;;;;;;;9.40;3.07;;;21.20;62.50;;;;;;4996754;28;20451;-67
2022/07/29 06:08:51;;;;;;;6.80;3.30;;;21.30;63.50;;;;;;4996771;28;20483;-67
2022/07/29 06:11:18;;;;;;;6.53;3.47;;;21.30;63.70;;;;;;4996424;28;20444;-67
2022/07/29 06:13:46;;;;;;;5.57;3.43;;;21.30;62.30;;;;;;4996579;28;20468;-67
2022/07/29 06:16:13;;;;;;;7.97;3.27;;;21.20;62.00;;;;;;4996497;28;20459;-67
2022/07/29 06:18:39;;;;;;;4.50;3.40;;;21.20;62.10;;;;;;4996326;28;20551;-68
2022/07/29 06:21:09;;;;;;;7.73;3.53;;;21.20;61.50;;;;;;4996224;28;20518;-68
2022/07/29 06:23:37;;;;;;;9.27;3.80;;;21.20;61.80;;;;;;4996338;28;20456;-67
2022/07/29 06:26:03;;;;;;;5.77;3.43;;;21.10;61.80;;;;;;4996355;28;20483;-67
2022/07/29 06:28:30;;;;;;;4.40;2.77;;;21.10;62.80;;;;;;4996200;28;20448;-68
2022/07/29 06:30:58;;;;;;;5.53;3.60;;;21.10;62.40;;;;;;4996166;28;20457;-68
2022/07/29 06:33:25;;;;;;;9.80;3.20;;;21.10;62.10;;;;;;4996116;28;20455;-67
2022/07/29 06:35:52;;;;;;;5.50;3.00;;;21.00;62.50;;;;;;4996045;28;20480;-67
2022/07/29 06:38:19;;;;;;;5.87;3.43;;;21.00;63.30;;;;;;4996897;28;20448;-67
2022/07/29 06:41:02;;;;;;;9.50;3.63;;;21.00;64.00;;;;;;4996115;28;20468;-68
2022/07/29 06:43:31;;;;;;;10.27;3.57;;;20.90;63.80;;;;;;4996059;28;20443;-68
2022/07/29 06:46:01;;;;;;;7.67;3.80;;;20.90;64.50;;;;;;4995965;28;20457;-67
2022/07/29 06:48:28;;;;;;;8.13;3.97;;;21.00;66.80;;;;;;4996097;28;21005;-68
2022/07/29 06:50:55;;;;;;;8.67;4.10;;;21.00;69.30;;;;;;4995458;28;20831;-68
2022/07/29 06:53:21;;;;;;;5.67;3.80;;;21.00;70.50;;;;;;4995028;28;20459;-67
2022/07/29 06:55:48;;;;;;;9.23;3.53;;;21.00;72.20;;;;;;4995604;28;20488;-67
2022/07/29 06:58:17;;;;;;;7.23;3.87;;;21.00;73.00;;;;;;4995702;28;20458;-67
2022/07/29 07:00:44;;;;;;;6.00;4.23;;;21.00;73.40;;;;;;4995214;28;20991;-68
2022/07/29 07:03:12;;;;;;;5.70;3.13;;;21.00;74.00;;;;;;4995574;28;20456;-68
2022/07/29 07:05:39;;;;;;;6.40;3.70;;;21.00;74.20;;;;;;4995286;28;20946;-68
2022/07/29 07:08:06;;;;;;;8.40;3.50;;;21.00;74.50;;;;;;4995528;28;20448;-67
2022/07/29 07:10:33;;;;;;;5.13;3.60;;;21.00;74.80;;;;;;4995363;28;20559;-67
2022/07/29 07:13:01;;;;;;;6.47;3.40;;;21.10;74.90;;;;;;4995088;28;20460;-67
2022/07/29 07:15:28;;;;;;;5.77;4.37;;;21.10;74.90;;;;;;4995303;28;20503;-67
2022/07/29 07:17:55;;;;;;;7.20;3.17;;;21.20;73.90;;;;;;4995367;28;20432;-67
2022/07/29 07:20:23;;;;;;;7.37;3.47;;;21.30;75.00;;;;;;4995546;28;20464;-67
2022/07/29 07:22:49;;;;;;;4.80;3.10;;;21.40;74.50;;;;;;4995242;28;20460;-67
2022/07/29 07:25:17;;;;;;;8.73;4.13;;;21.50;74.40;;;;;;4995186;28;20449;-67
2022/07/29 07:27:43;;;;;;;7.30;3.57;;;21.60;74.70;;;;;;4995161;28;20506;-67
2022/07/29 07:30:11;;;;;;;10.73;3.37;;;21.60;75.20;;;;;;4994988;28;20481;-67
2022/07/29 07:32:38;;;;;;;7.20;3.53;;;21.70;74.70;;;;;;4995007;28;20448;-67
2022/07/29 07:35:06;;;;;;;6.00;3.60;;;21.70;74.30;;;;;;4994941;28;20487;-67
2022/07/29 07:37:34;;;;;;;4.43;3.10;;;21.70;73.70;;;;;;4994949;28;20452;-67
2022/07/29 07:40:01;;;;;;;3.27;2.97;;;21.70;73.50;;;;;;4994938;28;20590;-68
2022/07/29 07:42:28;;;;;;;6.57;3.47;;;21.70;73.40;;;;;;4994933;28;20448;-67
2022/07/29 07:44:55;;;;;;;6.13;3.67;;;21.70;73.40;;;;;;4994540;28;21004;-67
2022/07/29 07:47:23;;;;;;;7.97;3.37;;;21.60;73.00;;;;;;4994826;28;20452;-67
2022/07/29 07:49:50;;;;;;;6.87;3.50;;;21.60;73.40;;;;;;4994355;28;20551;-67
2022/07/29 07:52:18;;;;;;;5.63;3.43;;;21.60;73.30;;;;;;4994747;28;20452;-67
2022/07/29 07:54:46;;;;;;;3.63;3.23;;;21.60;73.80;;;;;;4994629;28;20476;-67
2022/07/29 07:57:13;;;;;;;8.17;5.27;;;21.50;74.70;;;;;;4994593;28;20459;-67
2022/07/29 07:59:40;;;;;;;5.20;3.80;;;21.50;76.10;;;;;;4994562;28;20464;-67
2022/07/29 08:02:08;;;;;;;6.67;3.50;;;21.50;77.00;;;;;;4994589;28;20455;-67
2022/07/29 08:04:35;;;;;;;6.30;3.80;;;21.50;76.90;;;;;;4994502;28;20452;-67
2022/07/29 08:07:03;;;;;;;5.30;3.73;;;21.40;76.70;;;;;;4994283;28;20428;-67
2022/07/29 08:09:30;;;;;;;6.90;4.67;;;21.40;75.80;;;;;;4994107;28;21011;-67
2022/07/29 08:11:59;;;;;;;5.93;4.20;;;21.40;76.40;;;;;;4994346;28;20456;-67
2022/07/29 08:14:26;;;;;;;8.53;4.70;;;21.30;76.10;;;;;;4994871;28;20491;-67
2022/07/29 08:16:53;;;;;;;6.40;4.30;;;21.30;76.60;;;;;;4994375;28;20452;-67
2022/07/29 08:19:20;;;;;;;9.50;4.17;;;21.30;76.10;;;;;;4994209;28;20531;-68
2022/07/29 08:21:47;;;;;;;7.00;4.30;;;21.40;76.90;;;;;;4994336;28;20452;-67
2022/07/29 08:26:59;;;;;;;8.60;4.27;;;21.50;77.90;;;;;;4994174;28;20404;-67
2022/07/29 08:29:26;;;;;;;6.60;4.70;;;21.70;78.10;;;;;;4993730;28;20483;-67
2022/07/29 08:31:53;;;;;;;4.97;3.93;;;21.80;78.60;;;;;;4994121;28;20444;-67
2022/07/29 08:34:20;;;;;;;6.20;4.00;;;21.90;78.00;;;;;;4994034;28;20528;-67
2022/07/29 08:36:47;;;;;;;13.73;4.53;;;22.00;77.40;;;;;;4994127;28;20821;-67
2022/07/29 08:39:13;;;;;;;6.47;4.30;;;22.10;76.70;;;;;;4993751;28;20487;-67
2022/07/29 08:41:40;;;;;;;5.47;3.03;;;22.20;76.90;;;;;;4993726;28;20464;-67
2022/07/29 08:44:09;;;;;;;5.63;3.67;;;22.30;76.80;;;;;;4994041;28;20455;-67
2022/07/29 08:46:38;;;;;;;4.20;3.27;;;22.50;76.00;;;;;;4994845;28;20445;-67
2022/07/29 08:49:05;;;;;;;4.80;3.33;;;22.70;77.10;;;;;;4993809;28;20478;-67
2022/07/29 08:51:35;;;;;;;5.50;3.50;;;22.90;76.50;;;;;;4994027;28;20458;-67
2022/07/29 08:54:02;;;;;;;7.07;3.50;;;23.10;74.50;;;;;;4993975;28;20631;-67
2022/07/29 08:56:29;;;;;;;7.37;3.63;;;23.20;72.80;;;;;;4993834;28;20488;-67
2022/07/29 08:58:58;;;;;;;5.47;3.60;;;23.40;72.30;;;;;;4993776;28;20478;-68
2022/07/29 09:01:30;;;;;;;3.90;3.43;;;23.60;70.50;;;;;;4993838;28;20463;-67
2022/07/29 09:03:57;;;;;;;5.23;3.40;;;23.80;70.00;;;;;;4993934;28;20542;-67
2022/07/29 09:06:27;;;;;;;10.10;3.47;;;23.80;68.30;;;;;;4993857;28;20448;-67
2022/07/29 09:08:55;;;;;;;6.90;3.10;;;23.90;67.80;;;;;;4993830;28;20559;-67
2022/07/29 09:11:22;;;;;;;4.77;3.63;;;24.10;68.00;;;;;;4993552;28;20460;-67
2022/07/29 09:13:49;;;;;;;7.63;3.53;;;24.30;68.40;;;;;;4993851;28;20447;-67
2022/07/29 09:16:16;;;;;;;5.80;3.40;;;24.60;68.00;;;;;;4995656;28;20527;-67
2022/07/29 09:18:46;;;;;;;4.73;2.40;;;24.90;64.60;;;;;;4997131;28;21001;-68
2022/07/29 09:24:03;;;;;;;4.00;2.20;;;25.50;59.80;;;;;;4967386;28;20424;-68
2022/07/29 09:26:31;;;;;;;4.10;3.10;;;26.00;58.80;;;;;;4997452;28;20444;-68
2022/07/29 09:28:58;;;;;;;5.13;3.10;;;26.40;58.00;;;;;;4996981;28;20980;-68
2022/07/29 09:31:34;;;;;;;6.07;3.27;;;26.70;54.70;;;;;;4997190;28;20769;-68
2022/07/29 09:34:02;;;;;;;8.77;3.47;;;27.00;54.00;;;;;;4997132;28;20528;-68
2022/07/29 09:36:29;;;;;;;8.43;3.60;;;27.10;53.40;;;;;;4997235;28;20484;-68
2022/07/29 09:39:00;;;;;;;4.00;3.20;;;27.40;53.70;;;;;;4997172;28;20559;-68
2022/07/29 09:41:28;;;;;;;7.30;3.23;;;27.60;52.90;;;;;;4997183;28;20487;-68
2022/07/29 09:43:56;;;;;;;3.27;2.77;;;27.90;51.90;;;;;;4996924;28;20937;-68
2022/07/29 09:46:23;;;;;;;5.93;2.00;;;28.30;50.50;;;;;;4996960;28;21022;-68
2022/07/29 09:49:09;;;;;;;6.60;2.33;;;28.70;49.70;;;;;;4997025;28;20523;-68
2022/07/29 09:51:36;;;;;;;3.30;2.50;;;29.20;49.20;;;;;;4997036;28;20467;-68
2022/07/29 09:54:21;;;;;;;4.87;2.83;;;29.40;47.00;;;;;;4996949;28;20448;-68
2022/07/29 09:56:48;;;;;;;5.63;2.73;;;29.50;45.80;;;;;;4996575;28;20474;-68
2022/07/29 09:59:15;;;;;;;8.20;3.80;;;29.40;45.90;;;;;;4996441;28;20847;-68
2022/07/29 10:01:42;;;;;;;3.87;3.33;;;29.30;45.90;;;;;;4996692;28;20462;-68
2022/07/29 10:04:10;;;;;;;4.77;3.20;;;29.10;46.10;;;;;;4996508;28;20956;-68
2022/07/29 10:06:57;;;;;;;6.00;3.17;;;28.80;45.80;;;;;;4996616;28;20448;-68
2022/07/29 10:09:24;;;;;;;6.07;3.10;;;28.40;46.60;;;;;;4996606;28;20538;-68
2022/07/29 10:12:04;;;;;;;5.67;2.93;;;28.10;47.20;;;;;;4996449;28;20464;-68
2022/07/29 10:14:32;;;;;;;6.83;3.17;;;27.80;48.00;;;;;;4996530;28;20432;-69
2022/07/29 10:17:00;;;;;;;5.20;2.20;;;27.70;48.20;;;;;;4996530;28;20818;-68
2022/07/29 10:19:29;;;;;;;6.40;3.57;;;27.50;48.20;;;;;;4996454;28;20460;-68
2022/07/29 10:21:57;;;;;;;4.63;3.27;;;27.40;48.50;;;;;;4996131;28;20983;-68
2022/07/29 10:24:25;;;;;;;8.20;3.50;;;27.20;49.40;;;;;;4996321;28;20452;-68
2022/07/29 10:26:53;;;;;;;5.50;4.03;;;27.10;50.10;;;;;;4995139;28;20946;-68
2022/07/29 10:29:20;;;;;;;6.07;3.67;;;26.90;50.20;;;;;;4995854;28;20986;-68
2022/07/29 10:32:00;;;;;;;8.83;2.87;;;26.80;49.90;;;;;;4995884;28;20902;-68
2022/07/29 10:34:45;;;;;;;4.53;3.67;;;26.60;50.40;;;;;;4996226;28;20455;-68
2022/07/29 10:37:23;;;;;;;4.43;3.00;;;26.70;51.40;;;;;;4995884;28;20425;-68
2022/07/29 10:39:58;;;;;;;4.00;2.80;;;26.70;51.00;;;;;;4996037;28;20475;-68
2022/07/29 10:42:29;;;;;;;8.23;3.30;;;26.80;50.00;;;;;;4995747;28;20435;-68
2022/07/29 10:44:56;;;;;;;4.27;2.97;;;27.00;50.40;;;;;;4995988;28;20456;-68
2022/07/29 10:47:24;;;;;;;5.40;3.70;;;27.20;50.40;;;;;;4996032;28;20428;-68
2022/07/29 10:50:04;;;;;;;4.90;2.50;;;27.50;48.80;;;;;;4995928;28;20474;-68
2022/07/29 10:52:56;;;;;;;8.87;4.00;;;27.80;47.70;;;;;;4995926;28;20428;-68
2022/07/29 10:55:38;;;;;;;6.70;3.67;;;28.20;48.10;;;;;;4991882;28;20479;-68
2022/07/29 10:58:16;;;;;;;8.83;3.80;;;28.40;46.70;;;;;;4995431;28;20866;-68
2022/07/29 11:00:43;;;;;;;6.47;3.60;;;28.60;45.20;;;;;;4996263;28;20490;-68
2022/07/29 11:03:10;;;;;;;7.60;3.80;;;28.90;45.50;;;;;;4995963;28;20464;-68
2022/07/29 11:05:55;;;;;;;5.73;3.10;;;29.80;43.90;;;;;;4995906;28;20459;-68
2022/07/29 11:08:25;;;;;;;5.83;3.70;;;30.70;42.50;;;;;;4995663;28;20452;-69
2022/07/29 11:11:13;;;;;;;4.23;3.07;;;31.30;39.80;;;;;;4995545;28;20507;-69
2022/07/29 11:13:48;;;;;;;5.90;4.00;;;31.90;39.10;;;;;;4995116;28;20455;-69
2022/07/29 11:16:15;;;;;;;7.00;4.13;;;32.50;37.40;;;;;;4995408;28;20489;-69
2022/07/29 11:19:24;;;;;;;6.10;4.67;;;32.90;36.90;;;;;;4995383;28;20501;-69
2022/07/29 11:21:53;;;;;;;6.37;4.40;;;33.10;35.40;;;;;;4995149;28;20799;-69
2022/07/29 11:24:23;;;;;;;8.63;4.20;;;33.20;36.00;;;;;;4995362;28;20443;-69
2022/07/29 11:27:08;;;;;;;4.23;3.83;;;33.30;36.30;;;;;;4995320;28;20490;-69
2022/07/29 11:29:39;;;;;;;9.07;5.83;;;33.30;34.70;;;;;;4995341;28;20478;-69
2022/07/29 11:32:10;;;;;;;6.37;4.13;;;33.20;35.50;;;;;;4995619;28;20432;-69
2022/07/29 11:34:40;;;;;;;6.63;5.63;;;32.90;35.70;;;;;;4995669;28;20803;-69
2022/07/29 11:37:22;;;;;;;7.10;5.10;;;32.80;36.20;;;;;;4994990;28;20479;-69
2022/07/29 11:40:11;;;;;;;10.03;3.40;;;32.70;36.70;;;;;;4994683;28;20498;-69
2022/07/29 11:42:43;;;;;;;8.20;5.00;;;33.20;36.30;;;;;;4995055;28;20432;-69
2022/07/29 11:45:13;;;;;;;8.03;5.60;;;33.80;35.20;;;;;;4994627;28;20901;-69
2022/07/29 11:47:42;;;;;;;6.23;4.60;;;34.10;33.70;;;;;;4995266;28;20537;-69
2022/07/29 11:50:14;;;;;;;5.87;4.27;;;34.20;33.20;;;;;;4994864;28;20471;-69
2022/07/29 11:52:46;;;;;;;7.07;4.53;;;34.40;33.50;;;;;;4994559;28;20804;-69
2022/07/29 11:55:15;;;;;;;5.13;3.73;;;34.60;32.50;;;;;;4994800;28;20548;-69
2022/07/29 11:57:50;;;;;;;7.10;4.40;;;35.20;32.00;;;;;;4994680;28;20463;-69
2022/07/29 12:00:28;;;;;;;6.77;3.57;;;35.90;29.90;;;;;;4994619;28;20477;-69
2022/07/29 12:02:56;;;;;;;8.00;4.50;;;36.00;29.30;;;;;;4994237;28;20839;-69
2022/07/29 12:05:32;;;;;;;6.10;4.40;;;35.70;29.10;;;;;;4994299;28;20942;-69
2022/07/29 12:08:08;;;;;;;5.20;3.93;;;35.60;30.00;;;;;;4994595;28;20446;-69
2022/07/29 12:10:35;;;;;;;7.80;4.70;;;36.10;29.70;;;;;;4994498;28;20477;-69
2022/07/29 12:13:01;;;;;;;4.73;3.80;;;36.50;28.30;;;;;;4994059;28;20470;-69
2022/07/29 12:15:28;;;;;;;4.33;3.67;;;37.00;28.20;;;;;;4994417;28;20478;-69
2022/07/29 12:17:55;;;;;;;5.83;4.33;;;37.50;27.80;;;;;;4994480;28;20208;-69
2022/07/29 12:20:26;;;;;;;8.40;4.27;;;38.10;27.40;;;;;;4993856;28;20827;-69
2022/07/29 12:22:54;;;;;;;6.77;4.03;;;38.70;26.60;;;;;;4994163;28;20674;-69
2022/07/29 12:25:24;;;;;;;7.68;3.70;;;38.60;25.60;;;;;;4994369;28;20204;-69
2022/07/29 12:28:00;;;;;;;6.43;4.17;;;38.30;26.40;;;;;;4994708;28;20274;-69
2022/07/29 12:30:39;;;;;;;5.37;4.07;;;38.10;26.70;;;;;;4994650;28;20220;-70
2022/07/29 12:33:13;;;;;;;3.53;3.03;;;38.10;26.00;;;;;;4994174;28;20216;-69
2022/07/29 12:35:40;;;;;;;7.35;4.53;;;38.70;26.30;;;;;;4994171;28;20212;-69
2022/07/29 12:38:07;;;;;;;4.93;3.40;;;39.60;25.30;;;;;;4994175;28;20340;-69
2022/07/29 12:40:35;;;;;;;6.35;4.28;;;40.40;24.30;;;;;;4994125;28;20233;-69
2022/07/29 12:43:12;;;;;;;8.02;4.75;;;40.80;23.40;;;;;;4993842;28;20673;-69
2022/07/29 12:45:39;;;;;;;7.63;3.80;;;41.40;23.00;;;;;;4993885;28;20633;-69
2022/07/29 12:48:08;;;;;;;9.40;4.07;;;41.70;22.60;;;;;;4994102;28;20204;-69
2022/07/29 12:50:36;;;;;;;5.20;3.13;;;41.90;22.10;;;;;;4994836;28;20224;-70
2022/07/29 12:53:13;;;;;;;6.05;2.92;;;42.00;22.30;;;;;;4998149;28;20614;-70
2022/07/29 12:55:43;;;;;;;7.97;3.33;;;42.50;22.00;;;;;;4998116;28;20200;-70
2022/07/29 12:58:10;;;;;;;4.95;3.33;;;42.90;21.60;;;;;;4998035;28;20207;-70
2022/07/29 13:00:37;;;;;;;5.88;3.10;;;43.30;20.80;;;;;;4997864;28;20224;-69
2022/07/29 13:03:03;;;;;;;4.95;3.00;;;43.50;20.60;;;;;;4997577;28;20585;-69
2022/07/29 13:05:41;;;;;;;5.05;3.35;;;43.80;20.10;;;;;;4997606;28;20569;-70
2022/07/29 13:08:12;;;;;;;7.38;3.60;;;44.20;20.30;;;;;;4997532;28;20669;-70